createdAt,value
2019-03-08T00:02:24.639Z,89.70
2019-03-08T00:04:53.015Z,89.70
2019-03-08T00:07:21.401Z,89.80
2019-03-08T00:09:49.812Z,89.50
2019-03-08T00:12:18.198Z,89.50
2019-03-08T00:14:46.566Z,89.50
2019-03-08T00:17:14.939Z,89.90
2019-03-08T00:19:43.321Z,89.20
2019-03-08T00:22:11.691Z,89.20
2019-03-08T00:24:40.082Z,89.40
2019-03-08T00:27:08.527Z,88.70
2019-03-08T00:29:36.917Z,88.30
2019-03-08T00:32:05.351Z,89.00
2019-03-08T00:34:33.762Z,88.30
2019-03-08T00:37:02.136Z,87.60
2019-03-08T00:39:30.520Z,88.40
2019-03-08T00:41:58.897Z,88.30
2019-03-08T00:44:27.284Z,87.60
2019-03-08T00:46:55.659Z,88.10
2019-03-08T00:49:24.052Z,87.90
2019-03-08T00:51:52.438Z,87.80
2019-03-08T00:54:20.888Z,88.70
2019-03-08T00:56:49.270Z,88.60
2019-03-08T00:59:17.964Z,87.50
2019-03-08T01:01:46.335Z,88.00
2019-03-08T01:04:14.791Z,88.70
2019-03-08T01:06:43.204Z,89.30
2019-03-08T01:09:11.715Z,88.40
2019-03-08T01:11:40.164Z,88.30
2019-03-08T01:14:08.553Z,88.80
2019-03-08T01:16:37.241Z,87.70
2019-03-08T01:19:05.629Z,87.00
2019-03-08T01:21:34.007Z,87.70
2019-03-08T01:24:02.372Z,88.40
2019-03-08T01:26:31.035Z,87.70
2019-03-08T01:28:59.559Z,87.10
2019-03-08T01:31:27.943Z,87.70
2019-03-08T01:33:56.319Z,87.80
2019-03-08T01:36:24.695Z,87.70
2019-03-08T01:38:53.076Z,88.10
2019-03-08T01:41:21.455Z,88.20
2019-03-08T01:43:49.835Z,88.30
2019-03-08T01:46:18.228Z,88.10
2019-03-08T01:48:46.628Z,87.70
2019-03-08T01:51:15.016Z,87.30
2019-03-08T01:53:43.392Z,88.20
2019-03-08T01:56:11.860Z,88.90
2019-03-08T01:58:40.229Z,88.20
2019-03-08T02:01:08.688Z,88.20
2019-03-08T02:03:37.064Z,88.90
2019-03-08T02:06:05.455Z,88.70
2019-03-08T02:08:33.835Z,88.50
2019-03-08T02:11:02.299Z,88.30
2019-03-08T02:13:30.671Z,88.90
2019-03-08T02:15:59.071Z,89.20
2019-03-08T02:18:27.449Z,88.50
2019-03-08T02:20:55.833Z,88.30
2019-03-08T02:23:24.208Z,88.80
2019-03-08T02:25:52.771Z,89.20
2019-03-08T02:28:21.145Z,88.90
2019-03-08T02:30:49.531Z,89.20
2019-03-08T02:33:17.899Z,88.70
2019-03-08T02:35:46.306Z,89.30
2019-03-08T02:38:14.675Z,89.30
2019-03-08T02:40:43.324Z,88.90
2019-03-08T02:43:13.944Z,89.10
2019-03-08T02:45:41.611Z,89.10
2019-03-08T02:48:09.995Z,88.70
2019-03-08T02:50:38.372Z,89.50
2019-03-08T02:53:06.755Z,89.80
2019-03-08T02:55:35.479Z,89.50
2019-03-08T02:58:04.392Z,89.70
2019-03-08T03:00:35.124Z,89.40
2019-03-08T03:03:03.487Z,88.30
2019-03-08T03:05:31.863Z,89.50
2019-03-08T03:08:00.249Z,89.40
2019-03-08T03:10:28.628Z,89.60
2019-03-08T03:12:57.015Z,88.60
2019-03-08T03:15:25.468Z,89.30
2019-03-08T03:17:53.854Z,89.10
2019-03-08T03:20:22.236Z,88.40
2019-03-08T03:22:50.633Z,88.70
2019-03-08T03:25:18.998Z,88.50
2019-03-08T03:27:47.392Z,88.60
2019-03-08T03:30:20.964Z,88.60
2019-03-08T03:32:49.398Z,88.80
2019-03-08T03:35:17.774Z,88.60
2019-03-08T03:37:46.535Z,88.80
2019-03-08T03:40:16.652Z,88.60
2019-03-08T03:42:45.040Z,89.10
2019-03-08T03:45:20.634Z,89.40
2019-03-08T03:47:49.012Z,89.50
2019-03-08T03:50:18.551Z,90.00
2019-03-08T03:52:47.323Z,89.20
2019-03-08T03:55:17.909Z,89.60
2019-03-08T03:57:45.506Z,88.90
2019-03-08T04:00:21.508Z,89.80
2019-03-08T04:02:49.879Z,89.80
2019-03-08T04:05:18.422Z,89.50
2019-03-08T04:07:46.785Z,89.60
2019-03-08T04:10:16.115Z,89.50
2019-03-08T04:12:44.499Z,89.50
2019-03-08T04:15:20.338Z,89.50
2019-03-08T04:17:48.880Z,88.90
2019-03-08T04:20:18.376Z,89.10
2019-03-08T04:22:46.766Z,89.00
2019-03-08T04:25:15.311Z,89.50
2019-03-08T04:27:43.700Z,89.90
2019-03-08T04:30:17.070Z,89.80
2019-03-08T04:32:45.514Z,89.30
2019-03-08T04:35:13.900Z,89.30
2019-03-08T04:37:42.280Z,89.00
2019-03-08T04:40:12.965Z,89.10
2019-03-08T04:42:41.351Z,89.00
2019-03-08T04:45:12.148Z,89.30
2019-03-08T04:47:40.531Z,88.40
2019-03-08T04:50:10.955Z,88.80
2019-03-08T04:52:39.331Z,89.20
2019-03-08T04:55:11.059Z,88.90
2019-03-08T04:57:39.432Z,89.40
2019-03-08T05:00:11.433Z,89.10
2019-03-08T05:02:39.800Z,89.00
2019-03-08T05:05:08.377Z,89.10
2019-03-08T05:07:36.747Z,89.20
2019-03-08T05:10:08.211Z,89.00
2019-03-08T05:12:36.661Z,88.90
2019-03-08T05:15:06.282Z,88.60
2019-03-08T05:17:34.656Z,88.20
2019-03-08T05:20:03.115Z,88.70
2019-03-08T05:22:31.505Z,87.50
2019-03-08T05:24:59.879Z,87.10
2019-03-08T05:27:28.291Z,86.30
2019-03-08T05:29:56.643Z,86.80
2019-03-08T05:32:25.030Z,88.10
2019-03-08T05:34:53.409Z,88.10
2019-03-08T05:37:22.659Z,87.60
2019-03-08T05:39:51.035Z,88.00
2019-03-08T05:42:19.422Z,86.80
2019-03-08T05:44:47.800Z,87.80
2019-03-08T05:47:16.183Z,87.10
2019-03-08T05:49:44.556Z,88.50
2019-03-08T05:52:12.941Z,88.20
2019-03-08T05:54:41.676Z,88.30
2019-03-08T05:57:10.068Z,87.70
2019-03-08T05:59:38.728Z,87.00
2019-03-08T06:02:07.210Z,88.10
2019-03-08T06:04:35.582Z,87.90
2019-03-08T06:07:04.028Z,87.40
2019-03-08T06:09:32.395Z,86.30
2019-03-08T06:12:00.787Z,86.90
2019-03-08T06:14:29.540Z,87.50
2019-03-08T06:16:58.223Z,87.30
2019-03-08T06:19:26.593Z,87.70
2019-03-08T06:21:54.976Z,87.50
2019-03-08T06:24:23.354Z,88.50
2019-03-08T06:26:51.755Z,87.80
2019-03-08T06:29:20.138Z,87.50
2019-03-08T06:31:48.508Z,87.10
2019-03-08T06:34:16.919Z,87.60
2019-03-08T06:36:45.300Z,88.10
2019-03-08T06:39:13.725Z,87.60
2019-03-08T06:41:42.318Z,87.20
2019-03-08T06:44:10.712Z,88.10
2019-03-08T06:46:39.401Z,88.70
2019-03-08T06:49:07.794Z,87.10
2019-03-08T06:51:36.161Z,87.20
2019-03-08T06:54:04.618Z,87.10
2019-03-08T06:56:32.989Z,87.90
2019-03-08T06:59:03.015Z,87.70
2019-03-08T07:01:32.319Z,87.70
2019-03-08T07:04:00.701Z,87.50
2019-03-08T07:06:29.090Z,87.40
2019-03-08T07:08:57.477Z,87.90
2019-03-08T07:11:25.858Z,88.00
2019-03-08T07:13:54.235Z,87.10
2019-03-08T07:16:22.691Z,88.40
2019-03-08T07:18:51.867Z,87.30
2019-03-08T07:21:27.612Z,87.30
2019-03-08T07:23:57.643Z,87.00
2019-03-08T07:26:43.847Z,87.20
2019-03-08T07:29:16.814Z,85.60
2019-03-08T07:31:46.855Z,87.50
2019-03-08T07:34:20.004Z,86.00
2019-03-08T07:36:56.421Z,86.60
2019-03-08T07:39:32.041Z,86.00
2019-03-08T07:42:18.441Z,85.50
2019-03-08T07:44:53.907Z,85.50
2019-03-08T07:47:29.377Z,84.50
2019-03-08T07:50:05.142Z,85.70
2019-03-08T07:52:51.404Z,84.30
2019-03-08T07:55:30.876Z,83.80
2019-03-08T07:58:17.086Z,85.00
2019-03-08T08:00:53.236Z,84.90
2019-03-08T08:03:28.867Z,84.80
2019-03-08T08:06:04.990Z,84.50
2019-03-08T08:08:37.953Z,83.10
2019-03-08T08:11:10.996Z,82.00
2019-03-08T08:13:41.062Z,80.90
2019-03-08T08:16:27.184Z,82.40
2019-03-08T08:19:03.332Z,81.20
2019-03-08T08:21:36.344Z,79.60
2019-03-08T08:24:09.425Z,78.50
2019-03-08T08:26:51.035Z,80.20
2019-03-08T08:29:23.995Z,79.30
2019-03-08T08:31:54.065Z,80.30
2019-03-08T08:34:24.344Z,79.10
2019-03-08T08:37:06.514Z,79.60
2019-03-08T08:39:48.013Z,77.50
2019-03-08T08:42:35.708Z,80.20
2019-03-08T08:45:14.287Z,80.30
2019-03-08T08:47:56.442Z,74.60
2019-03-08T08:50:42.994Z,77.20
2019-03-08T08:53:18.807Z,74.70
2019-03-08T08:56:05.643Z,75.10
2019-03-08T08:58:52.221Z,77.00
2019-03-08T09:01:22.600Z,77.20
2019-03-08T09:03:58.337Z,78.20
2019-03-08T09:06:44.954Z,76.30
2019-03-08T09:09:15.229Z,75.60
2019-03-08T09:11:52.135Z,75.40
2019-03-08T09:14:22.763Z,76.20
2019-03-08T09:16:54.152Z,73.90
2019-03-08T09:19:33.462Z,75.50
2019-03-08T09:22:18.837Z,76.30
2019-03-08T09:24:48.937Z,76.30
2019-03-08T09:27:22.799Z,72.80
2019-03-08T09:29:52.835Z,74.00
2019-03-08T09:32:23.251Z,73.80
2019-03-08T09:35:08.261Z,75.40
2019-03-08T09:37:41.094Z,74.00
2019-03-08T09:40:20.685Z,73.30
2019-03-08T09:42:50.691Z,73.90
2019-03-08T09:45:20.807Z,74.40
2019-03-08T09:48:07.137Z,75.20
2019-03-08T09:50:43.598Z,75.80
2019-03-08T09:53:13.629Z,74.70
2019-03-08T09:56:01.635Z,73.30
2019-03-08T09:58:31.666Z,73.20
2019-03-08T10:01:16.651Z,75.00
2019-03-08T10:03:46.656Z,75.90
2019-03-08T10:06:29.291Z,74.80
2019-03-08T10:09:02.456Z,76.10
2019-03-08T10:11:32.512Z,76.90
2019-03-08T10:14:18.987Z,76.50
2019-03-08T10:16:51.981Z,76.10
2019-03-08T10:19:41.396Z,77.40
2019-03-08T10:22:26.628Z,77.50
2019-03-08T10:24:56.924Z,78.20
2019-03-08T10:27:43.351Z,79.30
2019-03-08T10:30:22.690Z,80.40
2019-03-08T10:33:01.683Z,81.40
2019-03-08T10:35:37.579Z,81.00
2019-03-08T10:38:22.730Z,82.70
2019-03-08T10:41:06.368Z,82.10
2019-03-08T10:43:41.976Z,83.40
2019-03-08T10:46:27.164Z,81.70
2019-03-08T10:48:57.395Z,80.70
2019-03-08T10:51:33.445Z,81.90
2019-03-08T10:54:06.452Z,81.60
2019-03-08T10:56:52.580Z,81.30
2019-03-08T10:59:25.559Z,79.90
2019-03-08T11:02:04.059Z,80.40
2019-03-08T11:04:36.759Z,83.10
2019-03-08T11:07:06.794Z,83.00
2019-03-08T11:09:54.023Z,83.40
2019-03-08T11:12:36.303Z,80.20
2019-03-08T11:15:25.620Z,83.20
2019-03-08T11:17:55.712Z,81.80
2019-03-08T11:20:28.522Z,81.80
2019-03-08T11:22:58.552Z,83.60
2019-03-08T11:25:34.725Z,81.70
2019-03-08T11:28:21.269Z,80.10
2019-03-08T11:31:06.519Z,83.00
2019-03-08T11:33:54.821Z,83.70
2019-03-08T11:36:27.306Z,82.10
2019-03-08T11:38:57.344Z,80.20
2019-03-08T11:41:27.375Z,83.00
2019-03-08T11:44:13.827Z,83.40
2019-03-08T11:46:43.859Z,86.30
2019-03-08T11:49:26.085Z,83.80
2019-03-08T11:51:58.848Z,84.30
2019-03-08T11:54:40.377Z,84.60
2019-03-08T11:57:13.903Z,83.30
2019-03-08T11:59:45.994Z,81.40
2019-03-08T12:02:25.152Z,80.80
2019-03-08T12:05:03.677Z,81.10
2019-03-08T12:07:39.616Z,77.90
2019-03-08T12:10:14.635Z,79.60
2019-03-08T12:12:53.232Z,81.30
2019-03-08T12:15:25.963Z,75.80
2019-03-08T12:18:01.965Z,82.20
2019-03-08T12:20:37.976Z,78.80
2019-03-08T12:23:17.056Z,78.50
2019-03-08T12:25:52.811Z,77.30
2019-03-08T12:28:22.852Z,77.00
2019-03-08T12:31:01.509Z,77.40
2019-03-08T12:33:37.307Z,77.00
2019-03-08T12:36:10.279Z,76.00
2019-03-08T12:38:46.512Z,75.70
2019-03-08T12:41:22.199Z,75.90
2019-03-08T12:44:08.590Z,72.10
2019-03-08T12:46:38.779Z,76.30
2019-03-08T12:49:08.898Z,74.80
2019-03-08T12:51:48.128Z,75.40
2019-03-08T12:54:21.120Z,78.40
2019-03-08T12:56:57.423Z,72.60
2019-03-08T12:59:43.555Z,72.50
2019-03-08T13:02:28.503Z,68.30
2019-03-08T13:05:14.713Z,70.00
2019-03-08T13:08:02.859Z,74.50
2019-03-08T13:10:31.256Z,66.00
2019-03-08T13:12:59.640Z,71.80
2019-03-08T13:15:28.041Z,74.90
2019-03-08T13:17:56.431Z,72.20
2019-03-08T13:20:24.841Z,69.10
2019-03-08T13:22:53.228Z,76.10
2019-03-08T13:25:21.697Z,75.60
2019-03-08T13:27:50.076Z,72.80
2019-03-08T13:30:21.265Z,73.80
2019-03-08T13:32:49.657Z,72.40
2019-03-08T13:35:18.044Z,73.60
2019-03-08T13:37:46.433Z,70.80
2019-03-08T13:40:16.239Z,71.70
2019-03-08T13:42:44.619Z,70.30
2019-03-08T13:45:16.196Z,71.70
2019-03-08T13:47:44.585Z,71.70
2019-03-08T13:50:14.714Z,71.10
2019-03-08T13:52:43.189Z,71.10
2019-03-08T13:55:14.497Z,70.80
2019-03-08T13:57:43.237Z,69.60
2019-03-08T14:00:17.067Z,67.40
2019-03-08T14:02:45.474Z,70.20
2019-03-08T14:05:14.286Z,67.90
2019-03-08T14:07:42.730Z,75.90
2019-03-08T14:10:19.998Z,76.00
2019-03-08T14:12:48.383Z,66.80
2019-03-08T14:15:17.600Z,71.10
2019-03-08T14:17:45.994Z,72.50
2019-03-08T14:20:26.429Z,75.20
2019-03-08T14:22:54.828Z,71.20
2019-03-08T14:25:23.217Z,66.50
2019-03-08T14:27:51.614Z,69.80
2019-03-08T14:30:32.075Z,70.40
2019-03-08T14:33:01.545Z,71.10
2019-03-08T14:35:30.980Z,74.80
2019-03-08T14:37:59.487Z,71.70
2019-03-08T14:40:32.440Z,61.10
2019-03-08T14:43:17.983Z,67.20
2019-03-08T14:46:04.415Z,67.00
2019-03-08T14:48:32.783Z,66.20
2019-03-08T14:51:01.258Z,72.40
2019-03-08T14:53:32.737Z,70.20
2019-03-08T14:55:59.988Z,73.30
2019-03-08T14:58:28.498Z,65.80
2019-03-08T15:00:56.887Z,71.40
2019-03-08T15:03:25.283Z,69.30
2019-03-08T15:05:54.878Z,62.80
2019-03-08T15:08:23.779Z,67.70
2019-03-08T15:10:52.157Z,69.30
2019-03-08T15:13:24.121Z,65.60
2019-03-08T15:15:50.660Z,73.90
2019-03-08T15:18:19.064Z,70.40
2019-03-08T15:20:47.465Z,71.30
2019-03-08T15:23:17.098Z,68.60
2019-03-08T15:25:48.976Z,70.60
2019-03-08T15:28:16.141Z,74.20
2019-03-08T15:30:44.697Z,64.30
2019-03-08T15:33:13.097Z,67.00
2019-03-08T15:35:41.479Z,67.00
2019-03-08T15:38:10.267Z,73.80
2019-03-08T15:40:38.659Z,64.80
2019-03-08T15:43:09.701Z,70.40
2019-03-08T15:45:40.148Z,59.40
2019-03-08T15:48:10.819Z,72.20
2019-03-08T15:50:37.421Z,65.10
2019-03-08T15:53:05.804Z,74.60
2019-03-08T15:55:34.188Z,73.80
2019-03-08T15:58:02.652Z,68.80
2019-03-08T16:00:31.037Z,58.70
2019-03-08T16:02:59.477Z,63.40
2019-03-08T16:05:29.731Z,74.70
2019-03-08T16:08:01.636Z,71.80
2019-03-08T16:10:28.124Z,76.00
2019-03-08T16:12:56.617Z,73.10
2019-03-08T16:15:24.995Z,63.40
2019-03-08T16:17:53.387Z,69.50
2019-03-08T16:20:22.503Z,67.00
2019-03-08T16:22:50.911Z,70.90
2019-03-08T16:25:19.363Z,73.40
2019-03-08T16:27:47.772Z,63.60
2019-03-08T16:30:23.433Z,61.70
2019-03-08T16:32:53.798Z,67.80
2019-03-08T16:35:21.563Z,64.10
2019-03-08T16:37:57.320Z,73.70
2019-03-08T16:40:29.912Z,61.90
2019-03-08T16:42:59.722Z,62.80
2019-03-08T16:45:32.431Z,74.70
2019-03-08T16:48:17.363Z,71.70
2019-03-08T16:50:47.232Z,62.90
2019-03-08T16:53:28.947Z,57.90
2019-03-08T16:56:12.423Z,57.30
2019-03-08T16:58:42.453Z,67.50
2019-03-08T17:01:28.494Z,58.20
2019-03-08T17:04:04.067Z,65.80
2019-03-08T17:06:34.083Z,57.00
2019-03-08T17:09:04.122Z,67.20
2019-03-08T17:11:39.887Z,62.90
2019-03-08T17:14:12.884Z,62.50
2019-03-08T17:16:42.898Z,57.50
2019-03-08T17:19:15.842Z,57.20
2019-03-08T17:21:48.855Z,58.80
2019-03-08T17:24:18.888Z,58.00
2019-03-08T17:27:06.936Z,56.50
2019-03-08T17:29:36.971Z,57.80
2019-03-08T17:32:18.955Z,56.30
2019-03-08T17:34:49.000Z,58.20
2019-03-08T17:37:19.026Z,56.20
2019-03-08T17:39:51.734Z,61.60
2019-03-08T17:42:36.821Z,57.80
2019-03-08T17:45:26.235Z,57.90
2019-03-08T17:48:01.969Z,60.80
2019-03-08T17:50:41.181Z,62.80
2019-03-08T17:53:11.188Z,65.80
2019-03-08T17:55:41.222Z,58.00
2019-03-08T17:58:20.208Z,61.50
2019-03-08T18:01:06.427Z,64.70
2019-03-08T18:03:52.140Z,68.50
2019-03-08T18:06:22.268Z,63.20
2019-03-08T18:09:04.231Z,63.60
2019-03-08T18:11:50.978Z,61.10
2019-03-08T18:14:30.184Z,62.10
2019-03-08T18:17:00.305Z,62.30
2019-03-08T18:19:30.350Z,62.50
2019-03-08T18:22:03.035Z,62.90
2019-03-08T18:24:35.492Z,68.10
2019-03-08T18:27:14.795Z,62.60
2019-03-08T18:29:54.399Z,66.30
2019-03-08T18:32:30.443Z,66.80
2019-03-08T18:35:21.819Z,63.40
2019-03-08T18:38:03.802Z,63.40
2019-03-08T18:40:33.839Z,64.20
2019-03-08T18:43:06.834Z,64.20
2019-03-08T18:45:48.979Z,64.90
2019-03-08T18:48:19.025Z,66.70
2019-03-08T18:50:49.052Z,68.00
2019-03-08T18:53:27.742Z,65.80
2019-03-08T18:56:03.757Z,71.20
2019-03-08T18:58:33.764Z,70.80
2019-03-08T19:01:19.933Z,68.00
2019-03-08T19:04:05.148Z,73.00
2019-03-08T19:06:44.729Z,67.20
2019-03-08T19:09:14.757Z,68.10
2019-03-08T19:11:56.979Z,70.60
2019-03-08T19:14:32.912Z,68.90
2019-03-08T19:17:05.740Z,69.50
2019-03-08T19:19:53.811Z,71.00
2019-03-08T19:22:29.522Z,73.50
2019-03-08T19:24:59.558Z,72.90
2019-03-08T19:27:35.976Z,75.10
2019-03-08T19:30:23.386Z,74.80
2019-03-08T19:33:09.820Z,74.90
2019-03-08T19:35:51.831Z,69.80
2019-03-08T19:38:30.527Z,67.70
2019-03-08T19:41:03.717Z,68.10
2019-03-08T19:43:33.765Z,71.00
2019-03-08T19:46:06.228Z,72.00
2019-03-08T19:48:39.065Z,70.20
2019-03-08T19:51:11.770Z,72.00
2019-03-08T19:53:41.813Z,70.90
2019-03-08T19:56:11.823Z,73.00
2019-03-08T19:58:58.117Z,73.70
2019-03-08T20:01:43.234Z,74.70
2019-03-08T20:04:16.131Z,71.70
2019-03-08T20:07:02.635Z,75.50
2019-03-08T20:09:44.875Z,70.30
2019-03-08T20:12:14.908Z,67.20
2019-03-08T20:15:01.413Z,70.20
2019-03-08T20:17:34.470Z,67.90
2019-03-08T20:20:20.192Z,68.50
2019-03-08T20:22:59.332Z,66.00
2019-03-08T20:25:29.358Z,65.90
2019-03-08T20:28:08.417Z,65.90
2019-03-08T20:30:41.391Z,65.80
2019-03-08T20:33:11.419Z,66.20
2019-03-08T20:35:47.337Z,66.20
2019-03-08T20:38:35.199Z,66.00
2019-03-08T20:41:07.907Z,65.90
2019-03-08T20:43:40.407Z,66.10
2019-03-08T20:46:27.003Z,66.50
2019-03-08T20:48:55.735Z,65.70
2019-03-08T20:51:24.720Z,65.90
2019-03-08T20:53:53.108Z,66.10
2019-03-08T20:56:21.489Z,68.10
2019-03-08T20:58:49.880Z,68.50
2019-03-08T21:01:18.264Z,66.70
2019-03-08T21:03:46.644Z,66.80
2019-03-08T21:06:15.019Z,67.10
2019-03-08T21:08:43.413Z,69.30
2019-03-08T21:11:11.790Z,68.90
2019-03-08T21:13:40.167Z,70.60
2019-03-08T21:16:08.923Z,68.50
2019-03-08T21:18:37.319Z,70.20
2019-03-08T21:21:05.712Z,74.50
2019-03-08T21:23:34.380Z,76.30
2019-03-08T21:26:02.751Z,79.50
2019-03-08T21:28:31.147Z,75.50
2019-03-08T21:30:59.523Z,70.40
2019-03-08T21:33:27.899Z,74.10
2019-03-08T21:35:56.296Z,77.00
2019-03-08T21:38:24.683Z,73.50
2019-03-08T21:40:53.067Z,80.40
2019-03-08T21:43:21.449Z,75.10
2019-03-08T21:45:49.845Z,72.70
2019-03-08T21:48:18.223Z,75.60
2019-03-08T21:50:46.627Z,75.30
2019-03-08T21:53:15.011Z,79.80
2019-03-08T21:55:43.476Z,79.40
2019-03-08T21:58:12.635Z,79.00
2019-03-08T22:00:41.028Z,75.40
2019-03-08T22:03:09.406Z,75.00
2019-03-08T22:05:42.293Z,74.20
2019-03-08T22:08:17.449Z,76.90
2019-03-08T22:10:44.027Z,79.80
2019-03-08T22:13:12.433Z,77.80
2019-03-08T22:15:41.221Z,75.00
2019-03-08T22:18:09.917Z,76.60
2019-03-08T22:20:38.304Z,75.00
2019-03-08T22:23:06.946Z,75.00
2019-03-08T22:25:35.334Z,76.70
2019-03-08T22:28:03.716Z,74.60
2019-03-08T22:30:32.527Z,76.30
2019-03-08T22:33:00.909Z,74.30
2019-03-08T22:35:29.295Z,74.30
2019-03-08T22:37:57.671Z,72.80
2019-03-08T22:40:26.061Z,76.10
2019-03-08T22:42:54.445Z,75.10
2019-03-08T22:45:22.822Z,73.20
2019-03-08T22:47:51.207Z,72.40
2019-03-08T22:50:20.059Z,73.30
2019-03-08T22:52:48.448Z,75.10
2019-03-08T22:55:16.842Z,71.70
2019-03-08T22:57:45.229Z,73.90
2019-03-08T23:00:21.673Z,75.00
2019-03-08T23:02:50.386Z,77.00
2019-03-08T23:05:18.771Z,74.90
2019-03-08T23:07:47.151Z,77.90
2019-03-08T23:10:15.524Z,76.80
2019-03-08T23:12:43.910Z,74.10
2019-03-08T23:15:12.280Z,72.00
2019-03-08T23:17:40.663Z,75.90
2019-03-08T23:20:09.131Z,76.10
2019-03-08T23:22:37.510Z,78.30
2019-03-08T23:25:05.892Z,75.30
2019-03-08T23:27:35.926Z,77.10
2019-03-08T23:30:07.085Z,76.20
2019-03-08T23:32:36.740Z,77.80
2019-03-08T23:35:07.055Z,76.30
2019-03-08T23:37:35.461Z,76.90
2019-03-08T23:40:05.211Z,74.60
2019-03-08T23:42:33.596Z,77.70
2019-03-08T23:45:01.975Z,76.70
2019-03-08T23:47:30.407Z,76.60
2019-03-08T23:49:58.779Z,76.80
2019-03-08T23:52:27.172Z,76.60
2019-03-08T23:54:55.923Z,77.20
2019-03-08T23:57:24.319Z,73.40
2019-03-08T23:59:52.696Z,72.70
